Chicago, Illinois
Traffic Map
Current Weather Conditions
Chicago, Illinois
Overcast
Overcast
59°
Feels Like: 59°
Wind Chill: 59° Ceiling: 1800
Heat Index: 59° Visibility: 10mi
Dew Point: 52° Wind: 18mph
Humidity: 78% Direction: 360° (N)
Pressure: 29.54in Gusts: 0mph
Raw Report DataKMDW 242053Z 36016KT 10SM BKN018 OVC075 15/11 A2954 RMK AO2 SLP000 T01500111 56004
Traffic Incident Summary
Active as of:
Severity:
Category:
InformationThere was an issue retrieving the traffic information for this location. Please try a different location or try again shortly.
Advertisements
Track Severe Weather on mobile